Time,TemperatureF,DewpointF,PressureIn,WindDirection,WindDirectionDegrees,WindSpeedMPH,WindSpeedGustMPH,Humidity,HourlyPrecipIn,Conditions,Clouds,dailyrainin,SoftwareType,DateUTC
2013-02-27 00:01:00,39.7,28.9,29.91,NW,313,0.0,0.0,65,0.00,CLR,,0.00,WeatherDisplay:10.37,2013-02-27 06:01:00,
2013-02-27 00:06:00,39.2,28.0,29.91,NW,313,0.0,0.0,64,0.00,CLR,,0.00,WeatherDisplay:10.37,2013-02-27 06:06:00,
2013-02-27 00:11:00,39.2,28.0,29.91,NW,313,0.0,0.0,64,0.00,CLR,,0.00,WeatherDisplay:10.37,2013-02-27 06:11:00,
2013-02-27 00:16:00,39.0,27.9,29.91,NW,313,0.0,0.0,64,0.00,CLR,,0.00,WeatherDisplay:10.37,2013-02-27 06:16:00,
2013-02-27 00:21:00,39.2,28.0,29.91,NW,313,0.0,0.0,64,0.00,CLR,,0.00,WeatherDisplay:10.37,2013-02-27 06:21:00,
2013-02-27 00:26:00,39.4,28.6,29.91,NW,313,0.0,0.0,65,0.00,CLR,,0.00,WeatherDisplay:10.37,2013-02-27 06:26:00,
2013-02-27 00:31:00,39.4,28.2,29.91,NW,313,0.0,0.0,64,0.00,CLR,,0.00,WeatherDisplay:10.37,2013-02-27 06:31:00,
2013-02-27 00:36:00,39.2,27.7,29.91,NW,313,0.0,0.0,63,0.00,CLR,,0.00,WeatherDisplay:10.37,2013-02-27 06:36:00,
2013-02-27 00:41:00,38.7,27.5,29.91,NW,313,0.0,0.0,64,0.00,CLR,,0.00,WeatherDisplay:10.37,2013-02-27 06:41:00,
2013-02-27 00:46:00,38.3,27.2,29.91,NW,313,0.0,0.0,64,0.00,CLR,,0.00,WeatherDisplay:10.37,2013-02-27 06:46:00,
2013-02-27 00:51:00,38.1,27.0,29.94,NW,313,0.0,0.0,64,0.00,CLR,,0.00,WeatherDisplay:10.37,2013-02-27 06:51:00,
2013-02-27 00:56:00,38.1,27.4,29.94,NW,313,0.0,0.0,65,0.00,CLR,,0.00,WeatherDisplay:10.37,2013-02-27 06:56:00,
2013-02-27 01:01:00,38.1,27.4,29.94,NW,313,0.0,0.0,65,0.00,CLR,,0.00,WeatherDisplay:10.37,2013-02-27 07:01:00,
2013-02-27 01:06:00,37.8,27.0,29.94,NW,313,0.0,0.0,65,0.00,CLR,,0.00,WeatherDisplay:10.37,2013-02-27 07:06:00,
2013-02-27 01:11:00,37.4,26.7,29.94,NW,313,0.0,0.0,65,0.00,CLR,,0.00,WeatherDisplay:10.37,2013-02-27 07:11:00,
2013-02-27 01:16:00,37.4,27.1,29.94,NW,313,0.0,0.0,66,0.00,CLR,,0.00,WeatherDisplay:10.37,2013-02-27 07:16:00,
2013-02-27 01:21:00,37.0,27.1,29.94,NW,313,0.0,0.0,67,0.00,CLR,,0.00,WeatherDisplay:10.37,2013-02-27 07:21:00,
2013-02-27 01:26:00,36.7,26.7,29.94,NW,313,0.0,0.0,67,0.00,CLR,,0.00,WeatherDisplay:10.37,2013-02-27 07:26:00,
2013-02-27 01:31:00,36.7,26.7,29.94,NW,313,0.0,0.0,67,0.00,CLR,,0.00,WeatherDisplay:10.37,2013-02-27 07:31:00,
2013-02-27 01:36:00,36.3,26.8,29.94,NW,313,0.0,0.0,68,0.00,CLR,,0.00,WeatherDisplay:10.37,2013-02-27 07:36:00,
2013-02-27 01:41:00,36.0,26.4,29.94,NW,313,0.0,0.0,68,0.00,CLR,,0.00,WeatherDisplay:10.37,2013-02-27 07:41:00,
2013-02-27 01:46:00,35.6,26.1,29.94,NW,313,0.0,0.0,68,0.00,CLR,,0.00,WeatherDisplay:10.37,2013-02-27 07:46:00,
2013-02-27 01:51:00,35.4,26.3,29.91,NW,313,0.0,0.0,69,0.00,CLR,,0.00,WeatherDisplay:10.37,2013-02-27 07:51:00,
2013-02-27 01:56:00,35.4,26.6,29.91,NW,313,0.0,0.0,70,0.00,CLR,,0.00,WeatherDisplay:10.37,2013-02-27 07:56:00,
2013-02-27 02:01:00,35.2,26.4,29.91,NW,313,0.0,0.0,70,0.00,CLR,,0.00,WeatherDisplay:10.37,2013-02-27 08:01:00,
2013-02-27 02:06:00,35.2,26.8,29.91,NW,313,0.0,0.0,71,0.00,CLR,,0.00,WeatherDisplay:10.37,2013-02-27 08:06:00,
2013-02-27 02:11:00,35.6,27.1,29.91,NW,313,0.0,0.0,71,0.00,CLR,,0.00,WeatherDisplay:10.37,2013-02-27 08:11:00,
2013-02-27 02:16:00,36.0,27.8,29.91,NW,313,0.0,0.0,72,0.00,CLR,,0.00,WeatherDisplay:10.37,2013-02-27 08:16:00,
2013-02-27 02:21:00,36.1,28.0,29.91,NW,313,0.0,0.0,72,0.00,CLR,,0.00,WeatherDisplay:10.37,2013-02-27 08:21:00,
2013-02-27 02:26:00,36.1,28.0,29.91,NW,313,0.0,0.0,72,0.00,CLR,,0.00,WeatherDisplay:10.37,2013-02-27 08:26:00,
2013-02-27 02:31:00,36.9,28.7,29.91,NW,313,2.3,0.0,72,0.00,CLR,,0.00,WeatherDisplay:10.37,2013-02-27 08:31:00,
2013-02-27 02:36:00,37.6,28.7,29.91,NW,326,3.1,0.0,70,0.00,CLR,,0.00,WeatherDisplay:10.37,2013-02-27 08:36:00,
2013-02-27 02:41:00,37.9,28.7,29.91,NNW,333,3.5,3.5,69,0.00,CLR,,0.00,WeatherDisplay:10.37,2013-02-27 08:41:00,
2013-02-27 02:46:00,37.9,28.3,29.91,NNW,337,3.5,3.5,68,0.00,CLR,,0.00,WeatherDisplay:10.37,2013-02-27 08:46:00,
2013-02-27 02:51:00,38.1,28.1,29.91,NNW,341,4.0,4.0,67,0.00,CLR,,0.00,WeatherDisplay:10.37,2013-02-27 08:51:00,
2013-02-27 02:56:00,38.3,27.9,29.91,NNW,339,4.6,4.6,66,0.00,CLR,,0.00,WeatherDisplay:10.37,2013-02-27 08:56:00,
2013-02-27 03:01:00,38.3,27.9,29.91,NNW,333,3.5,3.5,66,0.00,CLR,,0.00,WeatherDisplay:10.37,2013-02-27 09:01:00,
2013-02-27 03:06:00,38.1,27.4,29.91,NNW,327,4.6,4.6,65,0.00,CLR,,0.00,WeatherDisplay:10.37,2013-02-27 09:06:00,
2013-02-27 03:11:00,38.1,27.4,29.91,NNW,331,3.6,3.6,65,0.00,CLR,,0.00,WeatherDisplay:10.37,2013-02-27 09:11:00,
2013-02-27 03:16:00,38.1,27.0,29.91,NNW,332,3.1,3.1,64,0.00,CLR,,0.00,WeatherDisplay:10.37,2013-02-27 09:16:00,
2013-02-27 03:21:00,38.1,27.0,29.91,NNW,333,3.5,3.5,64,0.00,CLR,,0.00,WeatherDisplay:10.37,2013-02-27 09:21:00,
2013-02-27 03:26:00,37.9,26.8,29.91,NNW,333,3.5,3.5,64,0.00,CLR,,0.00,WeatherDisplay:10.37,2013-02-27 09:26:00,
2013-02-27 03:31:00,37.8,26.7,29.91,NNW,334,3.5,0.0,64,0.00,CLR,,0.00,WeatherDisplay:10.37,2013-02-27 09:31:00,
2013-02-27 03:36:00,37.0,26.0,29.94,NNW,334,2.3,0.0,64,0.00,CLR,,0.00,WeatherDisplay:10.37,2013-02-27 09:36:00,
2013-02-27 03:41:00,36.9,26.2,29.94,NNW,334,0.0,0.0,65,0.00,CLR,,0.00,WeatherDisplay:10.37,2013-02-27 09:41:00,
2013-02-27 03:46:00,36.7,26.0,29.94,NNW,334,0.0,0.0,65,0.00,CLR,,0.00,WeatherDisplay:10.37,2013-02-27 09:46:00,
2013-02-27 03:51:00,36.1,25.9,29.94,NNW,334,0.0,0.0,66,0.00,CLR,,0.00,WeatherDisplay:10.37,2013-02-27 09:51:00,
2013-02-27 03:56:00,36.0,25.7,29.94,NNW,334,0.0,0.0,66,0.00,CLR,,0.00,WeatherDisplay:10.37,2013-02-27 09:56:00,
2013-02-27 04:01:00,35.8,25.9,29.94,NNW,334,0.0,0.0,67,0.00,CLR,,0.00,WeatherDisplay:10.37,2013-02-27 10:01:00,
2013-02-27 04:06:00,35.6,25.7,29.94,NNW,334,0.0,0.0,67,0.00,CLR,,0.00,WeatherDisplay:10.37,2013-02-27 10:06:00,
2013-02-27 04:11:00,35.4,25.9,29.94,NNW,334,0.0,0.0,68,0.00,CLR,,0.00,WeatherDisplay:10.37,2013-02-27 10:11:00,
2013-02-27 04:17:00,35.4,26.3,29.94,NNW,334,0.0,0.0,69,0.00,CLR,,0.00,WeatherDisplay:10.37,2013-02-27 10:17:00,
2013-02-27 04:22:00,35.2,26.1,29.94,NNW,334,2.3,0.0,69,0.00,CLR,,0.00,WeatherDisplay:10.37,2013-02-27 10:22:00,
2013-02-27 04:27:00,35.1,25.9,29.94,NNW,334,2.3,0.0,69,0.00,CLR,,0.00,WeatherDisplay:10.37,2013-02-27 10:27:00,
2013-02-27 04:32:00,34.9,26.1,29.94,NNW,334,2.3,0.0,70,0.00,CLR,,0.00,WeatherDisplay:10.37,2013-02-27 10:32:00,
2013-02-27 04:37:00,35.2,26.8,29.94,North,0,5.8,5.8,71,0.00,CLR,,0.00,WeatherDisplay:10.37,2013-02-27 10:37:00,
2013-02-27 04:42:00,35.6,27.1,29.94,North,2,3.6,3.6,71,0.00,CLR,,0.00,WeatherDisplay:10.37,2013-02-27 10:42:00,
2013-02-27 04:47:00,35.6,27.1,29.94,North,0,5.8,5.8,71,0.00,CLR,,0.00,WeatherDisplay:10.37,2013-02-27 10:47:00,
2013-02-27 04:52:00,35.8,27.6,29.94,NNW,332,8.1,8.1,72,0.00,CLR,,0.00,WeatherDisplay:10.37,2013-02-27 10:52:00,
2013-02-27 04:57:00,36.0,27.8,29.94,NNE,13,5.8,5.8,72,0.00,CLR,,0.00,WeatherDisplay:10.37,2013-02-27 10:57:00,
2013-02-27 05:02:00,36.1,28.0,29.94,North,7,5.8,5.8,72,0.00,CLR,,0.00,WeatherDisplay:10.37,2013-02-27 11:02:00,
2013-02-27 05:08:00,36.1,28.3,29.97,North,0,3.5,3.5,73,0.00,CLR,,0.00,WeatherDisplay:10.37,2013-02-27 11:08:00,
2013-02-27 05:13:00,36.0,27.8,29.97,North,0,3.5,3.6,72,0.00,CLR,,0.00,WeatherDisplay:10.37,2013-02-27 11:13:00,
2013-02-27 05:18:00,35.6,27.8,29.97,NNE,15,3.5,3.6,73,0.00,CLR,,0.00,WeatherDisplay:10.37,2013-02-27 11:18:00,
2013-02-27 05:23:00,35.6,27.8,29.97,North,357,3.5,3.5,73,0.00,CLR,,0.00,WeatherDisplay:10.37,2013-02-27 11:23:00,
2013-02-27 05:28:00,35.6,27.8,29.97,North,3,3.6,3.6,73,0.00,CLR,,0.00,WeatherDisplay:10.37,2013-02-27 11:28:00,
2013-02-27 05:33:00,35.6,27.8,29.97,North,357,2.3,0.0,73,0.00,CLR,,0.00,WeatherDisplay:10.37,2013-02-27 11:33:00,
2013-02-27 05:38:00,35.4,28.0,30.00,North,357,3.5,3.5,74,0.00,CLR,,0.00,WeatherDisplay:10.37,2013-02-27 11:38:00,
2013-02-27 05:43:00,35.2,27.8,30.00,North,357,2.3,0.0,74,0.00,CLR,,0.00,WeatherDisplay:10.37,2013-02-27 11:43:00,
2013-02-27 05:48:00,35.2,27.8,30.00,NNE,25,0.0,0.0,74,0.00,CLR,,0.00,WeatherDisplay:10.37,2013-02-27 11:48:00,
2013-02-27 05:53:00,35.1,27.6,30.00,NNE,24,2.3,0.0,74,0.00,CLR,,0.00,WeatherDisplay:10.37,2013-02-27 11:53:00,
2013-02-27 05:58:00,34.9,27.4,30.00,North,353,0.0,0.0,74,0.00,CLR,,0.00,WeatherDisplay:10.37,2013-02-27 11:58:00,
2013-02-27 06:03:00,34.9,27.4,30.00,North,353,2.3,0.0,74,0.00,CLR,,0.00,WeatherDisplay:10.37,2013-02-27 12:03:00,
2013-02-27 06:08:00,34.5,27.4,30.00,North,353,0.0,0.0,75,0.00,CLR,,0.00,WeatherDisplay:10.37,2013-02-27 12:08:00,
2013-02-27 06:13:00,34.3,27.2,30.00,North,8,3.5,0.0,75,0.00,CLR,,0.00,WeatherDisplay:10.37,2013-02-27 12:13:00,
2013-02-27 06:18:00,34.3,27.2,30.00,North,11,3.5,3.5,75,0.00,CLR,,0.00,WeatherDisplay:10.37,2013-02-27 12:18:00,
2013-02-27 06:23:00,34.3,27.2,30.00,North,11,2.3,0.0,75,0.00,CLR,,0.00,WeatherDisplay:10.37,2013-02-27 12:23:00,
2013-02-27 06:28:00,34.3,27.6,30.00,North,11,2.7,0.0,76,0.00,CLR,,0.00,WeatherDisplay:10.37,2013-02-27 12:28:00,
2013-02-27 06:33:00,34.2,27.4,30.00,NNE,14,3.5,0.0,76,0.00,CLR,,0.00,WeatherDisplay:10.37,2013-02-27 12:33:00,
2013-02-27 06:38:00,34.3,27.6,30.03,NE,39,3.5,3.5,76,0.00,CLR,,0.00,WeatherDisplay:10.37,2013-02-27 12:38:00,
2013-02-27 06:43:00,34.3,27.6,30.03,NNE,24,3.5,3.5,76,0.00,CLR,,0.00,WeatherDisplay:10.37,2013-02-27 12:43:00,
2013-02-27 06:48:00,34.2,27.7,30.03,North,9,3.5,3.6,77,0.00,BKN,,0.00,WeatherDisplay:10.37,2013-02-27 12:48:00,
2013-02-27 06:53:00,34.2,27.7,30.03,NNE,12,3.5,3.5,77,0.00,BKN,,0.00,WeatherDisplay:10.37,2013-02-27 12:53:00,
2013-02-27 06:58:00,34.3,27.9,30.03,NNE,27,3.5,3.5,77,0.00,BKN,,0.00,WeatherDisplay:10.37,2013-02-27 12:58:00,
2013-02-27 07:03:00,34.5,28.4,30.03,NNE,12,5.8,5.8,78,0.00,BKN,,0.00,WeatherDisplay:10.37,2013-02-27 13:03:00,
2013-02-27 07:08:00,34.7,28.5,30.03,NNE,15,3.5,3.5,78,0.00,BKN,,0.00,WeatherDisplay:10.37,2013-02-27 13:08:00,
2013-02-27 07:13:00,34.9,28.7,30.03,North,353,4.6,0.0,78,0.00,BKN,,0.00,WeatherDisplay:10.37,2013-02-27 13:13:00,
2013-02-27 07:18:00,35.2,29.1,30.03,NNE,21,3.5,3.6,78,0.00,OVC,,0.00,WeatherDisplay:10.37,2013-02-27 13:18:00,
2013-02-27 07:23:00,35.4,29.2,30.03,NNE,17,5.8,5.8,78,0.00,OVC,,0.00,WeatherDisplay:10.37,2013-02-27 13:23:00,
2013-02-27 07:28:00,35.6,29.4,30.03,North,3,4.6,4.6,78,0.00,OVC,,0.00,WeatherDisplay:10.37,2013-02-27 13:28:00,
2013-02-27 07:33:00,35.8,29.6,30.03,North,11,3.6,3.6,78,0.00,OVC,,0.00,WeatherDisplay:10.37,2013-02-27 13:33:00,
2013-02-27 07:38:00,36.3,29.8,30.06,NNE,14,3.5,3.5,77,0.00,OVC,,0.00,WeatherDisplay:10.37,2013-02-27 13:38:00,
2013-02-27 07:43:00,37.0,30.8,30.06,North,0,5.8,5.8,78,0.00,OVC,,0.00,WeatherDisplay:10.37,2013-02-27 13:43:00,
2013-02-27 07:48:00,37.4,30.8,30.06,North,0,6.9,6.9,77,0.00,OVC,,0.00,WeatherDisplay:10.37,2013-02-27 13:48:00,
2013-02-27 07:53:00,37.6,30.7,30.06,North,357,5.8,5.8,76,0.00,OVC,,0.00,WeatherDisplay:10.37,2013-02-27 13:53:00,
2013-02-27 07:58:00,37.9,31.0,30.06,North,1,5.4,0.0,76,0.00,OVC,,0.00,WeatherDisplay:10.37,2013-02-27 13:58:00,
2013-02-27 08:03:00,38.3,31.1,30.06,North,4,3.5,3.5,75,0.00,SCT,,0.00,WeatherDisplay:10.37,2013-02-27 14:03:00,
2013-02-27 08:08:00,38.5,30.9,30.06,North,2,3.5,3.5,74,0.00,SCT,,0.00,WeatherDisplay:10.37,2013-02-27 14:08:00,
2013-02-27 08:14:00,38.8,31.3,30.06,NNE,14,2.3,2.3,74,0.00,SCT,,0.00,WeatherDisplay:10.37,2013-02-27 14:14:00,
2013-02-27 08:19:00,39.2,31.3,30.06,North,350,3.5,3.5,73,0.00,SCT,,0.00,WeatherDisplay:10.37,2013-02-27 14:19:00,
2013-02-27 08:24:00,39.7,31.4,30.06,North,4,2.3,0.0,72,0.00,SCT,,0.00,WeatherDisplay:10.37,2013-02-27 14:24:00,
2013-02-27 08:29:00,39.7,31.4,30.06,North,353,5.8,5.8,72,0.00,SCT,,0.00,WeatherDisplay:10.37,2013-02-27 14:29:00,
2013-02-27 08:34:00,39.2,30.6,30.06,NNW,348,3.6,3.6,71,0.00,BKN,,0.00,WeatherDisplay:10.37,2013-02-27 14:34:00,
2013-02-27 08:39:00,39.4,30.8,30.06,North,0,3.5,0.0,71,0.00,BKN,,0.00,WeatherDisplay:10.37,2013-02-27 14:39:00,
2013-02-27 08:44:00,39.6,30.9,30.06,North,353,4.6,4.6,71,0.00,BKN,,0.00,WeatherDisplay:10.37,2013-02-27 14:44:00,
2013-02-27 08:49:00,39.7,31.1,30.06,North,353,5.8,5.8,71,0.00,BKN,,0.00,WeatherDisplay:10.37,2013-02-27 14:49:00,
2013-02-27 08:54:00,40.1,31.4,30.09,North,357,5.8,5.8,71,0.00,BKN,,0.00,WeatherDisplay:10.37,2013-02-27 14:54:00,
2013-02-27 08:59:00,40.5,31.8,30.09,NNE,13,5.8,5.8,71,0.00,BKN,,0.00,WeatherDisplay:10.37,2013-02-27 14:59:00,
2013-02-27 09:04:00,41.0,31.6,30.09,North,353,5.8,5.8,69,0.00,BKN,,0.00,WeatherDisplay:10.37,2013-02-27 15:04:00,
2013-02-27 09:09:00,41.4,31.6,30.09,North,0,5.8,5.8,68,0.00,BKN,,0.00,WeatherDisplay:10.37,2013-02-27 15:09:00,
2013-02-27 09:14:00,41.5,31.4,30.09,NNW,336,3.5,4.0,67,0.00,BKN,,0.00,WeatherDisplay:10.37,2013-02-27 15:14:00,
2013-02-27 09:19:00,41.9,31.4,30.09,North,353,5.8,5.8,66,0.00,BKN,,0.00,WeatherDisplay:10.37,2013-02-27 15:19:00,
2013-02-27 09:24:00,42.4,31.5,30.09,NNE,19,4.6,4.6,65,0.00,BKN,,0.00,WeatherDisplay:10.37,2013-02-27 15:24:00,
2013-02-27 09:29:00,42.8,31.5,30.09,NNE,19,3.5,0.0,64,0.00,BKN,,0.00,WeatherDisplay:10.37,2013-02-27 15:29:00,
2013-02-27 09:34:00,43.5,31.0,30.09,North,8,3.5,3.5,61,0.00,CLR,,0.00,WeatherDisplay:10.37,2013-02-27 15:34:00,
2013-02-27 09:39:00,44.2,30.8,30.09,NNE,15,4.6,4.6,59,0.00,CLR,,0.00,WeatherDisplay:10.37,2013-02-27 15:39:00,
2013-02-27 09:44:00,45.1,29.9,30.09,North,3,5.8,5.8,55,0.00,CLR,,0.00,WeatherDisplay:10.37,2013-02-27 15:44:00,
2013-02-27 09:49:00,45.5,29.8,30.09,North,2,5.8,5.8,54,0.00,CLR,,0.00,WeatherDisplay:10.37,2013-02-27 15:49:00,
2013-02-27 09:54:00,46.2,30.5,30.09,SSE,162,3.5,3.5,54,0.00,CLR,,0.00,WeatherDisplay:10.37,2013-02-27 15:54:00,
2013-02-27 09:59:00,46.6,29.9,30.09,NNE,25,6.3,6.3,52,0.00,CLR,,0.00,WeatherDisplay:10.37,2013-02-27 15:59:00,
2013-02-27 10:04:00,46.8,29.6,30.09,NE,48,5.8,5.8,51,0.00,CLR,,0.00,WeatherDisplay:10.37,2013-02-27 16:04:00,
2013-02-27 10:09:00,46.9,28.8,30.09,NNE,24,5.8,5.8,49,0.00,CLR,,0.00,WeatherDisplay:10.37,2013-02-27 16:09:00,
2013-02-27 10:14:00,46.9,28.8,30.09,NNE,23,3.5,3.5,49,0.00,CLR,,0.00,WeatherDisplay:10.37,2013-02-27 16:14:00,
2013-02-27 10:19:00,47.1,29.4,30.09,NNE,32,3.5,4.5,50,0.00,CLR,,0.00,WeatherDisplay:10.37,2013-02-27 16:19:00,
2013-02-27 10:24:00,47.3,29.1,30.11,North,11,4.6,4.6,49,0.00,CLR,,0.00,WeatherDisplay:10.37,2013-02-27 16:24:00,
2013-02-27 10:29:00,47.7,29.4,30.11,NE,45,4.0,4.0,49,0.00,CLR,,0.00,WeatherDisplay:10.37,2013-02-27 16:29:00,
2013-02-27 10:34:00,47.8,29.1,30.11,ENE,71,3.5,3.5,48,0.00,SCT,,0.00,WeatherDisplay:10.37,2013-02-27 16:34:00,
2013-02-27 10:39:00,48.0,29.2,30.11,NNE,22,5.8,5.8,48,0.00,SCT,,0.00,WeatherDisplay:10.37,2013-02-27 16:39:00,
2013-02-27 10:44:00,48.6,29.2,30.11,NE,42,3.5,3.5,47,0.00,SCT,,0.00,WeatherDisplay:10.37,2013-02-27 16:44:00,
2013-02-27 10:49:00,48.6,28.2,30.11,North,357,5.8,5.8,45,0.00,CLR,,0.00,WeatherDisplay:10.37,2013-02-27 16:49:00,
2013-02-27 10:54:00,48.6,28.2,30.11,North,357,3.5,3.5,45,0.00,CLR,,0.00,WeatherDisplay:10.37,2013-02-27 16:54:00,
2013-02-27 10:59:00,48.7,28.9,30.11,SSW,201,3.5,3.5,46,0.00,CLR,,0.00,WeatherDisplay:10.37,2013-02-27 16:59:00,
2013-02-27 11:04:00,48.9,27.9,30.11,NE,36,5.8,5.8,44,0.00,CLR,,0.00,WeatherDisplay:10.37,2013-02-27 17:04:00,
2013-02-27 11:09:00,48.9,27.9,30.11,South,177,3.5,3.5,44,0.00,CLR,,0.00,WeatherDisplay:10.37,2013-02-27 17:09:00,
2013-02-27 11:14:00,48.9,27.4,30.11,NNE,27,5.8,5.8,43,0.00,CLR,,0.00,WeatherDisplay:10.37,2013-02-27 17:14:00,
2013-02-27 11:19:00,49.1,28.1,30.11,SSW,193,5.8,5.8,44,0.00,CLR,,0.00,WeatherDisplay:10.37,2013-02-27 17:19:00,
2013-02-27 11:24:00,49.1,27.5,30.11,South,182,5.8,5.8,43,0.00,CLR,,0.00,WeatherDisplay:10.37,2013-02-27 17:24:00,
2013-02-27 11:29:00,49.3,26.5,30.11,SSE,155,3.5,3.5,41,0.00,CLR,,0.00,WeatherDisplay:10.37,2013-02-27 17:29:00,
2013-02-27 11:34:00,49.5,26.7,30.11,ENE,78,4.6,4.6,41,0.00,CLR,,0.00,WeatherDisplay:10.37,2013-02-27 17:34:00,
2013-02-27 11:39:00,49.6,27.5,30.11,NE,43,3.5,3.5,42,0.00,CLR,,0.00,WeatherDisplay:10.37,2013-02-27 17:39:00,
2013-02-27 11:44:00,50.0,26.0,30.11,South,188,5.8,5.8,39,0.00,CLR,,0.00,WeatherDisplay:10.37,2013-02-27 17:44:00,
2013-02-27 11:49:00,50.0,25.4,30.11,South,180,5.8,5.8,38,0.00,CLR,,0.00,WeatherDisplay:10.37,2013-02-27 17:49:00,
2013-02-27 11:54:00,50.0,25.4,30.11,South,184,8.1,8.1,38,0.00,CLR,,0.00,WeatherDisplay:10.37,2013-02-27 17:54:00,
2013-02-27 11:59:00,50.0,25.4,30.11,North,357,5.8,5.8,38,0.00,CLR,,0.00,WeatherDisplay:10.37,2013-02-27 17:59:00,
2013-02-27 12:04:00,50.5,26.5,30.11,East,86,5.8,5.8,39,0.00,CLR,,0.00,WeatherDisplay:10.37,2013-02-27 18:04:00,
2013-02-27 12:09:00,50.9,26.2,30.11,SE,145,3.5,4.0,38,0.00,CLR,,0.00,WeatherDisplay:10.37,2013-02-27 18:09:00,
2013-02-27 12:14:00,51.1,25.7,30.11,SW,223,5.8,5.8,37,0.00,CLR,,0.00,WeatherDisplay:10.37,2013-02-27 18:14:00,
2013-02-27 12:19:00,51.1,25.7,30.11,NNE,19,5.8,5.8,37,0.00,CLR,,0.00,WeatherDisplay:10.37,2013-02-27 18:19:00,
2013-02-27 12:24:00,51.3,25.8,30.11,SE,124,5.8,5.8,37,0.00,CLR,,0.00,WeatherDisplay:10.37,2013-02-27 18:24:00,
2013-02-27 12:29:00,51.6,25.5,30.11,NNE,16,4.6,4.6,36,0.00,CLR,,0.00,WeatherDisplay:10.37,2013-02-27 18:29:00,
2013-02-27 12:34:00,51.6,22.7,30.11,SSE,147,8.1,8.1,32,0.00,CLR,,0.00,WeatherDisplay:10.37,2013-02-27 18:34:00,
2013-02-27 12:39:00,51.6,21.9,30.09,SW,226,5.8,5.8,31,0.00,CLR,,0.00,WeatherDisplay:10.37,2013-02-27 18:39:00,
2013-02-27 12:44:00,51.8,22.1,30.09,NNE,26,5.8,5.8,31,0.00,CLR,,0.00,WeatherDisplay:10.37,2013-02-27 18:44:00,
2013-02-27 12:49:00,52.2,23.2,30.09,SSW,200,9.2,9.2,32,0.00,CLR,,0.00,WeatherDisplay:10.37,2013-02-27 18:49:00,
2013-02-27 12:54:00,52.5,21.9,30.11,SSW,195,8.1,8.1,30,0.00,CLR,,0.00,WeatherDisplay:10.37,2013-02-27 18:54:00,
2013-02-27 13:00:00,52.5,21.1,30.11,South,177,5.8,5.8,29,0.00,CLR,,0.00,WeatherDisplay:10.37,2013-02-27 19:00:00,
2013-02-27 13:05:00,52.5,20.3,30.11,East,85,3.0,6.0,28,0.00,CLR,,0.00,WeatherDisplay:10.37,2013-02-27 19:05:00,
2013-02-27 13:09:00,52.5,20.3,30.11,NNE,21,3.5,3.5,28,0.00,CLR,,0.00,WeatherDisplay:10.37,2013-02-27 19:09:00,
2013-02-27 13:14:00,52.9,19.8,30.11,South,182,5.8,5.8,27,0.00,CLR,,0.00,WeatherDisplay:10.37,2013-02-27 19:14:00,
2013-02-27 13:19:00,52.9,18.9,30.11,NNE,18,5.8,5.8,26,0.00,CLR,,0.00,WeatherDisplay:10.37,2013-02-27 19:19:00,
2013-02-27 13:25:00,52.7,18.7,30.11,NNE,20,5.8,5.8,26,0.00,CLR,,0.00,WeatherDisplay:10.37,2013-02-27 19:25:00,
2013-02-27 13:30:00,52.9,18.9,30.11,NNE,17,5.8,5.8,26,0.00,CLR,,0.00,WeatherDisplay:10.37,2013-02-27 19:30:00,
2013-02-27 13:35:00,53.1,16.2,30.11,ESE,105,3.0,8.0,23,0.00,CLR,,0.00,WeatherDisplay:10.37,2013-02-27 19:35:00,
2013-02-27 13:40:00,53.2,19.2,30.11,SSW,197,5.8,5.8,26,0.00,CLR,,0.00,WeatherDisplay:10.37,2013-02-27 19:40:00,
2013-02-27 13:45:00,53.4,19.3,30.11,SSE,163,3.0,8.0,26,0.00,CLR,,0.00,WeatherDisplay:10.37,2013-02-27 19:45:00,
2013-02-27 13:50:00,53.4,15.4,30.11,South,185,7.0,10.0,22,0.00,CLR,,0.00,WeatherDisplay:10.37,2013-02-27 19:50:00,
2013-02-27 13:55:00,53.3,14.3,30.11,NW,320,2.0,6.0,21,0.00,CLR,,0.00,WeatherDisplay:10.37,2013-02-27 19:55:00,
2013-02-27 14:00:00,53.6,19.5,30.11,SW,219,3.0,6.0,26,0.00,CLR,,0.00,WeatherDisplay:10.37,2013-02-27 20:00:00,
2013-02-27 14:05:00,53.4,19.3,30.11,SSW,205,6.0,8.0,26,0.00,CLR,,0.00,WeatherDisplay:10.37,2013-02-27 20:05:00,
2013-02-27 14:10:00,53.6,19.5,30.11,NE,45,3.5,3.6,26,0.00,CLR,,0.00,WeatherDisplay:10.37,2013-02-27 20:10:00,
2013-02-27 14:15:00,53.2,19.2,30.11,SSE,162,3.0,8.0,26,0.00,CLR,,0.00,WeatherDisplay:10.37,2013-02-27 20:15:00,
2013-02-27 14:19:00,53.8,19.7,30.11,NE,41,3.5,3.5,26,0.00,CLR,,0.00,WeatherDisplay:10.37,2013-02-27 20:19:00,
2013-02-27 14:24:00,53.8,20.5,30.11,South,179,4.6,4.6,27,0.00,CLR,,0.00,WeatherDisplay:10.37,2013-02-27 20:24:00,
2013-02-27 14:29:00,53.4,20.2,30.11,South,191,5.8,5.8,27,0.00,CLR,,0.00,WeatherDisplay:10.37,2013-02-27 20:29:00,
2013-02-27 14:35:00,54.0,20.7,30.11,SSE,159,5.8,5.8,27,0.00,CLR,,0.00,WeatherDisplay:10.37,2013-02-27 20:35:00,
2013-02-27 14:40:00,53.6,20.4,30.11,SSW,200,6.0,8.0,27,0.00,CLR,,0.00,WeatherDisplay:10.37,2013-02-27 20:40:00,
2013-02-27 14:45:00,53.6,20.4,30.11,SW,214,3.0,6.0,27,0.00,CLR,,0.00,WeatherDisplay:10.37,2013-02-27 20:45:00,
2013-02-27 14:50:00,53.8,20.5,30.11,NNE,32,5.8,5.8,27,0.00,CLR,,0.00,WeatherDisplay:10.37,2013-02-27 20:50:00,
2013-02-27 14:55:00,53.8,21.4,30.11,SE,137,2.0,8.0,28,0.00,CLR,,0.00,WeatherDisplay:10.37,2013-02-27 20:55:00,
2013-02-27 14:59:00,54.1,21.7,30.11,NE,46,6.9,6.9,28,0.00,CLR,,0.00,WeatherDisplay:10.37,2013-02-27 20:59:00,
2013-02-27 15:05:00,54.0,19.8,30.11,North,357,5.8,5.8,26,0.00,CLR,,0.00,WeatherDisplay:10.37,2013-02-27 21:05:00,
2013-02-27 15:10:00,54.2,21.8,30.11,SE,132,3.0,8.0,28,0.00,CLR,,0.00,WeatherDisplay:10.37,2013-02-27 21:10:00,
2013-02-27 15:14:00,54.1,20.8,30.11,South,181,4.6,4.6,27,0.00,CLR,,0.00,WeatherDisplay:10.37,2013-02-27 21:14:00,
2013-02-27 15:20:00,54.0,20.7,30.11,ENE,72,6.9,6.9,27,0.00,CLR,,0.00,WeatherDisplay:10.37,2013-02-27 21:20:00,
2013-02-27 15:25:00,54.0,23.2,30.11,NNE,29,3.0,6.0,30,0.00,CLR,,0.00,WeatherDisplay:10.37,2013-02-27 21:25:00,
2013-02-27 15:29:00,54.3,22.7,30.11,SE,126,4.6,4.6,29,0.00,CLR,,0.00,WeatherDisplay:10.37,2013-02-27 21:29:00,
2013-02-27 15:35:00,53.9,21.5,30.11,South,176,5.0,8.0,28,0.00,CLR,,0.00,WeatherDisplay:10.37,2013-02-27 21:35:00,
2013-02-27 15:39:00,54.0,21.6,30.11,East,100,3.5,3.5,28,0.00,CLR,,0.00,WeatherDisplay:10.37,2013-02-27 21:39:00,
2013-02-27 15:45:00,53.8,19.7,30.11,WSW,250,5.8,5.8,26,0.00,CLR,,0.00,WeatherDisplay:10.37,2013-02-27 21:45:00,
2013-02-27 15:50:00,53.8,21.4,30.11,WSW,239,4.6,4.6,28,0.00,CLR,,0.00,WeatherDisplay:10.37,2013-02-27 21:50:00,
2013-02-27 15:55:00,54.0,20.7,30.11,NNE,21,3.0,8.0,27,0.00,CLR,,0.00,WeatherDisplay:10.37,2013-02-27 21:55:00,
2013-02-27 16:00:00,54.0,19.8,30.11,SE,143,8.1,8.1,26,0.00,CLR,,0.00,WeatherDisplay:10.37,2013-02-27 22:00:00,
2013-02-27 16:05:00,53.7,19.6,30.11,South,179,3.0,8.0,26,0.00,CLR,,0.00,WeatherDisplay:10.37,2013-02-27 22:05:00,
2013-02-27 16:09:00,53.8,18.7,30.11,SSW,197,7.6,7.6,25,0.00,CLR,,0.00,WeatherDisplay:10.37,2013-02-27 22:09:00,
2013-02-27 16:15:00,53.8,16.8,30.11,NNE,12,5.8,5.8,23,0.00,CLR,,0.00,WeatherDisplay:10.37,2013-02-27 22:15:00,
2013-02-27 16:20:00,54.0,14.9,30.11,SSE,148,3.0,6.0,21,0.00,CLR,,0.00,WeatherDisplay:10.37,2013-02-27 22:20:00,
2013-02-27 16:24:00,54.0,11.3,30.11,North,2,6.9,6.9,18,0.00,CLR,,0.00,WeatherDisplay:10.37,2013-02-27 22:24:00,
2013-02-27 16:30:00,54.1,11.5,30.11,NE,56,3.0,8.0,18,0.00,CLR,,0.00,WeatherDisplay:10.37,2013-02-27 22:30:00,
2013-02-27 16:35:00,54.0,-3.7,30.11,South,175,3.0,8.0,9,0.00,CLR,,0.00,WeatherDisplay:10.37,2013-02-27 22:35:00,
2013-02-27 16:40:00,54.0,-6.2,30.11,NNE,18,3.5,3.5,8,0.00,CLR,,0.00,WeatherDisplay:10.37,2013-02-27 22:40:00,
2013-02-27 16:45:00,53.9,-8.9,30.11,ESE,121,2.0,6.0,7,0.00,CLR,,0.00,WeatherDisplay:10.37,2013-02-27 22:45:00,
2013-02-27 16:49:00,53.8,-9.0,30.11,NW,310,8.1,8.1,7,0.00,CLR,,0.00,WeatherDisplay:10.37,2013-02-27 22:49:00,
2013-02-27 16:55:00,53.8,-9.0,30.11,ENE,62,3.6,3.6,7,0.00,CLR,,0.00,WeatherDisplay:10.37,2013-02-27 22:55:00,
2013-02-27 17:00:00,53.6,-9.2,30.11,SSE,163,5.0,6.0,7,0.00,CLR,,0.00,WeatherDisplay:10.37,2013-02-27 23:00:00,
2013-02-27 17:04:00,53.8,-9.0,30.11,SE,130,5.8,5.8,7,0.00,CLR,,0.00,WeatherDisplay:10.37,2013-02-27 23:04:00,
2013-02-27 17:10:00,53.6,-9.2,30.11,South,182,3.0,6.0,7,0.00,CLR,,0.00,WeatherDisplay:10.37,2013-02-27 23:10:00,
2013-02-27 17:15:00,53.4,-9.3,30.11,SE,126,3.0,8.0,7,0.00,CLR,,0.00,WeatherDisplay:10.37,2013-02-27 23:15:00,
2013-02-27 17:19:00,53.2,-9.5,30.11,ENE,75,5.8,5.8,7,0.00,CLR,,0.00,WeatherDisplay:10.37,2013-02-27 23:19:00,
2013-02-27 17:25:00,53.1,-9.6,30.11,South,183,5.8,5.8,7,0.00,CLR,,0.00,WeatherDisplay:10.37,2013-02-27 23:25:00,
2013-02-27 17:30:00,53.1,-9.6,30.11,South,174,3.0,6.0,7,0.00,CLR,,0.00,WeatherDisplay:10.37,2013-02-27 23:30:00,
2013-02-27 17:34:00,53.1,-9.6,30.11,NNW,346,4.6,4.6,7,0.00,CLR,,0.00,WeatherDisplay:10.37,2013-02-27 23:34:00,
2013-02-27 17:40:00,52.9,-9.7,30.11,SSW,196,3.0,6.0,7,0.00,CLR,,0.00,WeatherDisplay:10.37,2013-02-27 23:40:00,
2013-02-27 17:45:00,52.5,-10.0,30.11,South,182,0.0,6.0,7,0.00,CLR,,0.00,WeatherDisplay:10.37,2013-02-27 23:45:00,
2013-02-27 17:50:00,52.3,-10.1,30.11,SSE,166,0.0,5.0,7,0.00,CLR,,0.00,WeatherDisplay:10.37,2013-02-27 23:50:00,
2013-02-27 17:55:00,52.0,-10.4,30.11,East,97,3.5,3.5,7,0.00,CLR,,0.00,WeatherDisplay:10.37,2013-02-27 23:55:00,
2013-02-27 18:00:00,51.8,-10.5,30.11,ESE,110,1.0,5.0,7,0.00,CLR,,0.00,WeatherDisplay:10.37,2013-02-28 00:00:00,
2013-02-27 18:05:00,51.4,-8.1,30.11,South,187,3.5,3.5,8,0.00,CLR,,0.00,WeatherDisplay:10.37,2013-02-28 00:05:00,
2013-02-27 18:10:00,51.3,-8.2,30.11,SSW,193,2.0,6.0,8,0.00,CLR,,0.00,WeatherDisplay:10.37,2013-02-28 00:10:00,
2013-02-27 18:15:00,50.9,-8.5,30.11,SSW,194,0.0,5.0,8,0.00,CLR,,0.00,WeatherDisplay:10.37,2013-02-28 00:15:00,
2013-02-27 18:20:00,50.4,-8.9,30.11,West,275,3.5,3.5,8,0.00,CLR,,0.00,WeatherDisplay:10.37,2013-02-28 00:20:00,
2013-02-27 18:25:00,50.1,-9.1,30.11,East,97,0.0,4.0,8,0.00,CLR,,0.00,WeatherDisplay:10.37,2013-02-28 00:25:00,
2013-02-27 18:29:00,49.8,-9.3,30.11,South,188,4.0,4.0,8,0.00,CLR,,0.00,WeatherDisplay:10.37,2013-02-28 00:29:00,
2013-02-27 18:35:00,49.5,-9.5,30.11,South,184,3.0,6.0,8,0.00,CLR,,0.00,WeatherDisplay:10.37,2013-02-28 00:35:00,
2013-02-27 18:40:00,49.3,-9.7,30.15,SSW,194,0.0,4.0,8,0.00,CLR,,0.00,WeatherDisplay:10.37,2013-02-28 00:40:00,
2013-02-27 18:44:00,48.9,-10.0,30.15,South,191,3.5,0.0,8,0.00,CLR,,0.00,WeatherDisplay:10.37,2013-02-28 00:44:00,
2013-02-27 18:50:00,48.7,-10.1,30.15,SSW,192,2.0,5.0,8,0.00,CLR,,0.00,WeatherDisplay:10.37,2013-02-28 00:50:00,
2013-02-27 18:55:00,48.6,-10.3,30.15,South,186,2.0,5.0,8,0.00,CLR,,0.00,WeatherDisplay:10.37,2013-02-28 00:55:00,
2013-02-27 18:59:00,48.0,-10.7,30.15,South,190,3.5,0.0,8,0.00,CLR,,0.00,WeatherDisplay:10.37,2013-02-28 00:59:00,
2013-02-27 19:05:00,47.8,-8.4,30.15,South,190,0.0,4.0,9,0.00,CLR,,0.00,WeatherDisplay:10.37,2013-02-28 01:05:00,
2013-02-27 19:09:00,47.3,0.4,30.15,SSE,166,2.3,0.0,14,0.00,CLR,,0.00,WeatherDisplay:10.37,2013-02-28 01:09:00,
2013-02-27 19:15:00,46.8,6.6,30.15,SSE,166,0.0,0.0,19,0.00,CLR,,0.00,WeatherDisplay:10.37,2013-02-28 01:15:00,
2013-02-27 19:20:00,46.6,9.7,30.15,SSE,148,0.0,4.0,22,0.00,CLR,,0.00,WeatherDisplay:10.37,2013-02-28 01:20:00,
2013-02-27 19:24:00,46.9,12.0,30.15,NNE,33,3.5,0.0,24,0.00,CLR,,0.00,WeatherDisplay:10.37,2013-02-28 01:24:00,
2013-02-27 19:30:00,46.9,14.6,30.15,NE,38,2.3,0.0,27,0.00,CLR,,0.00,WeatherDisplay:10.37,2013-02-28 01:30:00,
2013-02-27 19:35:00,46.6,11.7,30.15,NE,40,2.0,7.0,24,0.00,CLR,,0.00,WeatherDisplay:10.37,2013-02-28 01:35:00,
2013-02-27 19:39:00,47.3,4.6,30.15,North,353,5.8,5.8,17,0.00,CLR,,0.00,WeatherDisplay:10.37,2013-02-28 01:39:00,
2013-02-27 19:45:00,47.3,-2.9,30.15,NNE,18,2.0,6.0,12,0.00,CLR,,0.00,WeatherDisplay:10.37,2013-02-28 01:45:00,
2013-02-27 19:50:00,47.3,-2.9,30.15,NNE,20,2.0,6.0,12,0.00,CLR,,0.00,WeatherDisplay:10.37,2013-02-28 01:50:00,
2013-02-27 19:54:00,47.1,-9.0,30.17,North,8,3.5,3.5,9,0.00,CLR,,0.00,WeatherDisplay:10.37,2013-02-28 01:54:00,
2013-02-27 20:00:00,46.9,-3.1,30.17,NNE,19,3.0,6.0,12,0.00,CLR,,0.00,WeatherDisplay:10.37,2013-02-28 02:00:00,
2013-02-27 20:05:00,46.6,-0.2,30.17,NNE,23,1.0,4.0,14,0.00,CLR,,0.00,WeatherDisplay:10.37,2013-02-28 02:05:00,
2013-02-27 20:10:00,46.4,-3.6,30.17,NE,37,5.8,5.8,12,0.00,CLR,,0.00,WeatherDisplay:10.37,2013-02-28 02:10:00,
2013-02-27 20:15:00,46.2,1.0,30.17,NNE,17,3.0,7.0,15,0.00,CLR,,0.00,WeatherDisplay:10.37,2013-02-28 02:15:00,
2013-02-27 20:19:00,46.0,3.6,30.17,NNE,23,4.6,4.6,17,0.00,CLR,,0.00,WeatherDisplay:10.37,2013-02-28 02:19:00,
2013-02-27 20:25:00,46.0,3.6,30.17,NNE,33,5.8,5.8,17,0.00,CLR,,0.00,WeatherDisplay:10.37,2013-02-28 02:25:00,
2013-02-27 20:30:00,45.9,7.0,30.17,NNE,19,2.0,6.0,20,0.00,CLR,,0.00,WeatherDisplay:10.37,2013-02-28 02:30:00,
2013-02-27 20:34:00,45.7,8.9,30.17,NNE,33,4.0,4.0,22,0.00,CLR,,0.00,WeatherDisplay:10.37,2013-02-28 02:34:00,
2013-02-27 20:40:00,45.5,6.7,30.17,NE,41,8.1,8.1,20,0.00,CLR,,0.00,WeatherDisplay:10.37,2013-02-28 02:40:00,
2013-02-27 20:45:00,45.3,10.5,30.17,NNE,22,3.0,6.0,24,0.00,CLR,,0.00,WeatherDisplay:10.37,2013-02-28 02:45:00,
2013-02-27 20:49:00,44.8,11.0,30.17,NE,40,4.6,4.6,25,0.00,CLR,,0.00,WeatherDisplay:10.37,2013-02-28 02:49:00,
2013-02-27 20:55:00,44.6,12.6,30.17,NNE,32,4.6,4.6,27,0.00,CLR,,0.00,WeatherDisplay:10.37,2013-02-28 02:55:00,
2013-02-27 21:00:00,44.6,13.5,30.17,NNE,17,6.0,8.0,28,0.00,CLR,,0.00,WeatherDisplay:10.37,2013-02-28 03:00:00,
2013-02-27 21:04:00,44.2,13.9,30.17,NNE,28,8.1,8.1,29,0.00,CLR,,0.00,WeatherDisplay:10.37,2013-02-28 03:04:00,
2013-02-27 21:09:00,44.2,13.9,30.17,NNE,18,6.0,10.0,29,0.00,CLR,,0.00,WeatherDisplay:10.37,2013-02-28 03:09:00,
2013-02-27 21:14:00,43.9,14.4,30.17,NNE,20,5.8,5.8,30,0.00,CLR,,0.00,WeatherDisplay:10.37,2013-02-28 03:14:00,
2013-02-27 21:19:00,43.5,14.8,30.17,North,11,5.8,5.8,31,0.00,CLR,,0.00,WeatherDisplay:10.37,2013-02-28 03:19:00,
2013-02-27 21:24:00,43.5,15.6,30.20,NNE,20,5.8,5.8,32,0.00,CLR,,0.00,WeatherDisplay:10.37,2013-02-28 03:24:00,
2013-02-27 21:29:00,43.2,15.3,30.20,NNE,30,4.6,4.6,32,0.00,CLR,,0.00,WeatherDisplay:10.37,2013-02-28 03:29:00,
2013-02-27 21:35:00,43.0,15.8,30.20,North,353,4.6,4.6,33,0.00,CLR,,0.00,WeatherDisplay:10.37,2013-02-28 03:35:00,
2013-02-27 21:40:00,42.8,17.0,30.20,NNE,18,5.8,5.8,35,0.00,CLR,,0.00,WeatherDisplay:10.37,2013-02-28 03:40:00,
2013-02-27 21:45:00,42.8,17.0,30.20,NNE,20,4.6,0.0,35,0.00,CLR,,0.00,WeatherDisplay:10.37,2013-02-28 03:45:00,
2013-02-27 21:50:00,42.6,17.5,30.20,NNE,33,3.5,3.5,36,0.00,CLR,,0.00,WeatherDisplay:10.37,2013-02-28 03:50:00,
2013-02-27 21:55:00,42.3,18.4,30.20,NE,56,4.6,4.6,38,0.00,CLR,,0.00,WeatherDisplay:10.37,2013-02-28 03:55:00,
2013-02-27 22:00:00,42.3,18.4,30.20,NNE,29,5.8,5.8,38,0.00,CLR,,0.00,WeatherDisplay:10.37,2013-02-28 04:00:00,
2013-02-27 22:05:00,42.1,18.3,30.20,NE,39,5.8,5.8,38,0.00,CLR,,0.00,WeatherDisplay:10.37,2013-02-28 04:05:00,
2013-02-27 22:10:00,41.9,18.7,30.20,NNE,16,3.5,3.5,39,0.00,CLR,,0.00,WeatherDisplay:10.37,2013-02-28 04:10:00,
2013-02-27 22:15:00,41.4,18.2,30.20,NE,37,5.8,5.8,39,0.00,CLR,,0.00,WeatherDisplay:10.37,2013-02-28 04:15:00,
2013-02-27 22:20:00,41.4,18.2,30.20,NNE,25,3.5,3.5,39,0.00,CLR,,0.00,WeatherDisplay:10.37,2013-02-28 04:20:00,
2013-02-27 22:25:00,41.0,18.5,30.20,NNE,16,5.8,5.8,40,0.00,CLR,,0.00,WeatherDisplay:10.37,2013-02-28 04:25:00,
2013-02-27 22:30:00,41.0,18.5,30.20,NNE,30,4.9,4.9,40,0.00,CLR,,0.00,WeatherDisplay:10.37,2013-02-28 04:30:00,
2013-02-27 22:35:00,41.0,18.5,30.20,South,172,3.5,3.5,40,0.00,CLR,,0.00,WeatherDisplay:10.37,2013-02-28 04:35:00,
2013-02-27 22:40:00,40.6,18.7,30.20,North,357,4.9,4.9,41,0.00,CLR,,0.00,WeatherDisplay:10.37,2013-02-28 04:40:00,
2013-02-27 22:45:00,40.5,18.6,30.20,NNE,25,3.5,3.5,41,0.00,CLR,,0.00,WeatherDisplay:10.37,2013-02-28 04:45:00,
2013-02-27 22:50:00,40.3,19.0,30.20,NNE,19,3.5,0.0,42,0.00,CLR,,0.00,WeatherDisplay:10.37,2013-02-28 04:50:00,
2013-02-27 22:55:00,40.3,19.0,30.20,North,3,3.5,0.0,42,0.00,CLR,,0.00,WeatherDisplay:10.37,2013-02-28 04:55:00,
2013-02-27 23:00:00,40.3,19.5,30.20,NE,52,2.3,0.0,43,0.00,CLR,,0.00,WeatherDisplay:10.37,2013-02-28 05:00:00,
2013-02-27 23:05:00,39.9,19.2,30.20,NE,43,3.5,3.5,43,0.00,CLR,,0.00,WeatherDisplay:10.37,2013-02-28 05:05:00,
2013-02-27 23:10:00,39.9,19.7,30.20,NE,35,2.3,0.0,44,0.00,CLR,,0.00,WeatherDisplay:10.37,2013-02-28 05:10:00,
2013-02-27 23:15:00,39.9,19.7,30.20,NNE,19,3.5,3.5,44,0.00,CLR,,0.00,WeatherDisplay:10.37,2013-02-28 05:15:00,
2013-02-27 23:20:00,39.7,20.1,30.20,NE,42,5.8,5.8,45,0.00,CLR,,0.00,WeatherDisplay:10.37,2013-02-28 05:20:00,
2013-02-27 23:25:00,39.6,19.9,30.20,NNE,22,3.5,3.5,45,0.00,CLR,,0.00,WeatherDisplay:10.37,2013-02-28 05:25:00,
2013-02-27 23:30:00,39.6,20.5,30.20,NE,39,3.5,3.5,46,0.00,CLR,,0.00,WeatherDisplay:10.37,2013-02-28 05:30:00,
2013-02-27 23:35:00,39.4,20.3,30.20,NNW,330,3.5,3.5,46,0.00,CLR,,0.00,WeatherDisplay:10.37,2013-02-28 05:35:00,
2013-02-27 23:40:00,39.2,20.6,30.20,North,9,2.3,2.3,47,0.00,CLR,,0.00,WeatherDisplay:10.37,2013-02-28 05:40:00,
2013-02-27 23:45:00,39.0,21.0,30.20,NE,40,2.3,0.0,48,0.00,CLR,,0.00,WeatherDisplay:10.37,2013-02-28 05:45:00,
2013-02-27 23:50:00,38.8,20.8,30.20,NNE,32,3.5,0.0,48,0.00,CLR,,0.00,WeatherDisplay:10.37,2013-02-28 05:50:00,
2013-02-27 23:55:00,38.7,21.1,30.20,North,2,3.5,0.0,49,0.00,CLR,,0.00,WeatherDisplay:10.37,2013-02-28 05:55:00,